createdAt,value
2023-05-11T00:02:25.009Z,101011.47
2023-05-11T00:04:56.885Z,101008.39
2023-05-11T00:07:29.602Z,101011.09
2023-05-11T00:10:01.517Z,101016.87
2023-05-11T00:12:33.517Z,101008.39
2023-05-11T00:15:05.796Z,101018.59
2023-05-11T00:17:37.631Z,101013.69
2023-05-11T00:20:09.950Z,101012.98
2023-05-11T00:22:44.106Z,101010.28
2023-05-11T00:25:15.116Z,101009.10
2023-05-11T00:27:46.816Z,101007.27
2023-05-11T00:30:19.101Z,101013.05
2023-05-11T00:32:53.008Z,101005.83
2023-05-11T00:35:25.123Z,101011.60
2023-05-11T00:37:57.155Z,101003.12
2023-05-11T00:40:28.989Z,101008.16
2023-05-11T00:43:00.673Z,101006.39
2023-05-11T00:45:34.092Z,101007.75
2023-05-11T00:48:05.862Z,101011.80
2023-05-11T00:50:38.631Z,101005.05
2023-05-11T00:53:11.621Z,101009.10
2023-05-11T00:55:43.357Z,101009.41
2023-05-11T00:58:16.646Z,101011.60
2023-05-11T01:00:48.951Z,101009.67
2023-05-11T01:03:20.954Z,101011.40
2023-05-11T01:06:12.541Z,101014.00
2023-05-11T01:08:49.773Z,101012.17
2023-05-11T01:11:44.414Z,101012.92
2023-05-11T01:14:19.109Z,101011.97
2023-05-11T01:16:53.135Z,101012.82
2023-05-11T01:19:49.636Z,101010.99
2023-05-11T01:22:33.985Z,101013.33
2023-05-11T01:25:20.682Z,101017.86
2023-05-11T01:28:15.860Z,101014.78
2023-05-11T01:30:58.925Z,101016.61
2023-05-11T01:33:32.928Z,101015.86
2023-05-11T01:36:09.969Z,101015.66
2023-05-11T01:38:42.679Z,101021.67
2023-05-11T01:41:17.467Z,101019.44
2023-05-11T01:43:52.385Z,101026.30
2023-05-11T01:46:26.439Z,101024.58
2023-05-11T01:48:58.243Z,101026.30
2023-05-11T01:51:31.651Z,101019.55
2023-05-11T01:54:03.347Z,101023.23
2023-05-11T01:56:37.347Z,101020.63
2023-05-11T01:59:09.032Z,101018.39
2023-05-11T02:01:40.795Z,101022.72
2023-05-11T02:04:13.355Z,101021.98
2023-05-11T02:06:45.224Z,101019.00
2023-05-11T02:09:18.045Z,101023.05
2023-05-11T02:11:50.484Z,101027.69
2023-05-11T02:14:22.298Z,101025.55
2023-05-11T02:16:54.393Z,101027.11
2023-05-11T02:19:26.351Z,101035.22
2023-05-11T02:21:57.903Z,101029.06
2023-05-11T02:24:29.707Z,101027.91
2023-05-11T02:27:01.303Z,101024.84
2023-05-11T02:29:33.740Z,101030.44
2023-05-11T02:32:11.301Z,101029.28
2023-05-11T02:34:44.424Z,101037.50
2023-05-11T02:37:18.263Z,101037.59
2023-05-11T02:39:51.225Z,101039.05
2023-05-11T02:42:23.836Z,101037.41
2023-05-11T02:45:04.587Z,101041.06
2023-05-11T02:47:40.871Z,101040.28
2023-05-11T02:50:13.803Z,101036.23
2023-05-11T02:52:47.460Z,101035.45
2023-05-11T02:55:19.447Z,101038.34
2023-05-11T02:57:51.503Z,101040.37
2023-05-11T03:00:23.570Z,101049.73
2023-05-11T03:02:55.992Z,101044.70
2023-05-11T03:05:27.976Z,101048.45
2023-05-11T03:08:00.277Z,101046.23
2023-05-11T03:10:33.393Z,101055.27
2023-05-11T03:13:06.364Z,101050.81
2023-05-11T03:15:38.638Z,101056.59
2023-05-11T03:18:10.858Z,101060.05
2023-05-11T03:20:43.160Z,101061.94
2023-05-11T03:23:14.812Z,101054.77
2023-05-11T03:25:46.747Z,101058.80
2023-05-11T03:28:18.612Z,101062.81
2023-05-11T03:30:51.982Z,101069.16
2023-05-11T03:33:23.746Z,101063.92
2023-05-11T03:35:55.608Z,101066.05
2023-05-11T03:38:27.889Z,101064.48
2023-05-11T03:40:59.859Z,101068.92
2023-05-11T03:43:33.465Z,101072.50
2023-05-11T03:46:05.338Z,101073.35
2023-05-11T03:48:37.166Z,101077.41
2023-05-11T03:51:09.559Z,101073.86
2023-05-11T03:53:41.275Z,101080.11
2023-05-11T03:56:13.148Z,101078.77
2023-05-11T03:58:45.055Z,101075.11
2023-05-11T04:01:16.646Z,101084.75
2023-05-11T04:03:53.886Z,101091.78
2023-05-11T04:06:26.202Z,101091.94
2023-05-11T04:08:59.467Z,101088.55
2023-05-11T04:11:31.199Z,101089.12
2023-05-11T04:14:02.820Z,101091.00
2023-05-11T04:16:34.709Z,101096.38
2023-05-11T04:19:07.404Z,101095.95
2023-05-11T04:21:39.572Z,101094.55
2023-05-11T04:24:11.254Z,101098.34
2023-05-11T04:26:43.631Z,101096.72
2023-05-11T04:29:15.457Z,101095.86
2023-05-11T04:31:46.991Z,101114.38
2023-05-11T04:34:18.931Z,101113.61
2023-05-11T04:36:51.404Z,101116.88
2023-05-11T04:39:23.199Z,101122.48
2023-05-11T04:41:54.959Z,101117.36
2023-05-11T04:44:39.286Z,101107.93
2023-05-11T04:47:11.005Z,101109.16
2023-05-11T04:49:44.305Z,101116.91
2023-05-11T04:52:16.263Z,101114.42
2023-05-11T04:54:49.517Z,101115.23
2023-05-11T04:57:21.182Z,101104.77
2023-05-11T04:59:52.966Z,101111.39
2023-05-11T05:02:25.092Z,101116.38
2023-05-11T05:04:56.663Z,101113.20
2023-05-11T05:07:28.738Z,101118.69
2023-05-11T05:10:00.840Z,101116.50
2023-05-11T05:12:32.702Z,101114.78
2023-05-11T05:15:05.716Z,101115.80
2023-05-11T05:17:37.452Z,101114.91
2023-05-11T05:20:09.511Z,101117.40
2023-05-11T05:22:41.911Z,101113.77
2023-05-11T05:25:13.952Z,101117.50
2023-05-11T05:27:46.044Z,101120.92
2023-05-11T05:30:20.233Z,101118.69
2023-05-11T05:32:53.060Z,101121.14
2023-05-11T05:35:24.654Z,101119.77
2023-05-11T05:37:57.264Z,101120.20
2023-05-11T05:40:29.436Z,101115.95
2023-05-11T05:43:01.282Z,101121.70
2023-05-11T05:45:33.705Z,101122.90
2023-05-11T05:48:06.352Z,101119.70
2023-05-11T05:50:49.239Z,101125.22
2023-05-11T05:53:21.602Z,101119.53
2023-05-11T05:55:53.499Z,101114.34
2023-05-11T05:58:25.456Z,101117.03
2023-05-11T06:00:57.351Z,101119.13
2023-05-11T06:03:29.625Z,101107.25
2023-05-11T06:06:04.756Z,101109.70
2023-05-11T06:08:49.106Z,101111.88
2023-05-11T06:11:21.945Z,101113.96
2023-05-11T06:13:54.905Z,101114.11
2023-05-11T06:16:27.774Z,101111.94
2023-05-11T06:18:59.594Z,101109.54
2023-05-11T06:21:31.552Z,101102.91
2023-05-11T06:24:03.829Z,101107.84
2023-05-11T06:26:37.492Z,101106.58
2023-05-11T06:29:09.830Z,101105.54
2023-05-11T06:31:42.302Z,101105.38
2023-05-11T06:34:14.031Z,101108.68
2023-05-11T06:36:46.088Z,101108.20
2023-05-11T06:39:17.981Z,101110.53
2023-05-11T06:41:51.285Z,101105.78
2023-05-11T06:44:23.033Z,101101.33
2023-05-11T06:46:56.715Z,101106.16
2023-05-11T06:49:28.810Z,101112.87
2023-05-11T06:52:00.705Z,101114.09
2023-05-11T06:54:32.732Z,101111.02
2023-05-11T06:57:05.357Z,101114.24
2023-05-11T06:59:37.009Z,101109.95
2023-05-11T07:02:09.550Z,101110.48
2023-05-11T07:04:41.458Z,101114.10
2023-05-11T07:07:13.263Z,101111.75
2023-05-11T07:09:45.844Z,101107.30
2023-05-11T07:12:17.415Z,101109.73
2023-05-11T07:14:49.809Z,101114.25
2023-05-11T07:17:21.494Z,101106.05
2023-05-11T07:19:56.954Z,101104.07
2023-05-11T07:22:28.698Z,101106.31
2023-05-11T07:25:01.696Z,101111.67
2023-05-11T07:27:34.918Z,101102.87
2023-05-11T07:30:07.971Z,101108.37
2023-05-11T07:32:39.645Z,101102.87
2023-05-11T07:35:11.582Z,101103.92
2023-05-11T07:37:43.490Z,101102.88
2023-05-11T07:40:15.117Z,101097.89
2023-05-11T07:42:48.487Z,101094.95
2023-05-11T07:45:20.056Z,101102.17
2023-05-11T07:47:51.794Z,101098.19
2023-05-11T07:50:24.680Z,101092.98
2023-05-11T07:52:57.038Z,101092.95
2023-05-11T07:55:30.730Z,101083.67
2023-05-11T07:58:02.576Z,101083.83
2023-05-11T08:00:34.405Z,101083.59
2023-05-11T08:03:06.681Z,101077.64
2023-05-11T08:05:39.055Z,101083.09
2023-05-11T08:08:10.943Z,101078.84
2023-05-11T08:10:42.756Z,101078.95
2023-05-11T08:13:14.634Z,101074.73
2023-05-11T08:15:46.381Z,101074.44
2023-05-11T08:18:18.402Z,101074.53
2023-05-11T08:20:50.536Z,101073.44
2023-05-11T08:23:23.298Z,101070.03
2023-05-11T08:25:56.211Z,101065.74
2023-05-11T08:28:27.976Z,101063.33
2023-05-11T08:31:00.118Z,101061.18
2023-05-11T08:33:37.985Z,101071.23
2023-05-11T08:36:06.649Z,101079.05
2023-05-11T08:38:38.588Z,101068.88
2023-05-11T08:41:14.400Z,101071.22
2023-05-11T08:43:47.390Z,101070.41
2023-05-11T08:46:21.783Z,101070.45
2023-05-11T08:48:53.403Z,101062.12
2023-05-11T08:51:25.312Z,101065.62
2023-05-11T08:53:58.823Z,101067.89
2023-05-11T08:56:31.052Z,101074.15
2023-05-11T08:59:03.723Z,101076.53
2023-05-11T09:01:40.114Z,101073.14
2023-05-11T09:04:11.922Z,101077.42
2023-05-11T09:06:43.908Z,101074.11
2023-05-11T09:09:16.857Z,101077.16
2023-05-11T09:11:49.166Z,101080.75
2023-05-11T09:14:27.005Z,101077.00
2023-05-11T09:16:54.588Z,101074.08
2023-05-11T09:19:37.235Z,101068.91
2023-05-11T09:22:09.126Z,101066.23
2023-05-11T09:24:43.178Z,101066.94
2023-05-11T09:27:21.136Z,101062.77
2023-05-11T09:29:52.291Z,101068.45
2023-05-11T09:32:23.859Z,101059.45
2023-05-11T09:34:57.125Z,101061.55
2023-05-11T09:37:28.778Z,101055.39
2023-05-11T09:42:35.374Z,101053.02
2023-05-11T09:45:08.244Z,101039.89
2023-05-11T09:47:41.095Z,101044.53
2023-05-11T09:52:52.615Z,101031.43
2023-05-11T09:55:24.409Z,101024.91
2023-05-11T09:57:58.283Z,101028.97
2023-05-11T10:00:29.800Z,101027.56
2023-05-11T10:03:05.970Z,101020.27
2023-05-11T10:05:37.690Z,101023.29
2023-05-11T10:08:09.682Z,101031.59
2023-05-11T10:10:41.242Z,101027.05
2023-05-11T10:13:13.208Z,101025.94
2023-05-11T10:15:44.887Z,101019.76
2023-05-11T10:18:20.099Z,101005.92
2023-05-11T10:20:50.946Z,101016.83
2023-05-11T10:23:22.499Z,101016.53
2023-05-11T10:25:54.974Z,101010.39
2023-05-11T10:28:26.589Z,101007.02
2023-05-11T10:30:59.050Z,101009.99
2023-05-11T10:33:31.230Z,101010.29
2023-05-11T10:36:03.529Z,101007.63
2023-05-11T10:38:35.627Z,100997.84
2023-05-11T10:41:10.669Z,100988.04
2023-05-11T10:43:45.835Z,100990.94
2023-05-11T10:46:30.630Z,100982.98
2023-05-11T10:49:23.919Z,100981.60
2023-05-11T10:52:26.345Z,100981.41
2023-05-11T10:55:23.163Z,100977.58
2023-05-11T10:58:10.549Z,100978.67
2023-05-11T11:01:15.884Z,100985.63
2023-05-11T11:04:04.549Z,100980.38
2023-05-11T11:06:38.938Z,100979.25
2023-05-11T11:09:15.874Z,100985.83
2023-05-11T11:11:50.323Z,100977.84
2023-05-11T11:14:22.191Z,100975.47
2023-05-11T11:20:01.830Z,100977.08
2023-05-11T11:25:37.948Z,100977.77
2023-05-11T11:28:09.684Z,100966.22
2023-05-11T11:30:41.500Z,100970.50
2023-05-11T11:33:18.304Z,100971.45
2023-05-11T11:35:50.672Z,100973.83
2023-05-11T11:38:22.760Z,100972.20
2023-05-11T11:40:54.555Z,100971.25
2023-05-11T11:43:28.810Z,100969.11
2023-05-11T11:46:02.976Z,100957.67
2023-05-11T11:48:57.005Z,100961.34
2023-05-11T11:51:29.617Z,100965.66
2023-05-11T11:54:01.351Z,100959.09
2023-05-11T11:56:36.778Z,100953.65
2023-05-11T11:59:10.240Z,100952.56
2023-05-11T12:01:42.776Z,100955.00
2023-05-11T12:04:51.307Z,100951.13
2023-05-11T12:07:23.185Z,100951.52
2023-05-11T12:09:57.621Z,100946.52
2023-05-11T12:12:30.230Z,100940.10
2023-05-11T12:15:03.617Z,100944.33
2023-05-11T12:17:39.329Z,100935.34
2023-05-11T12:20:32.803Z,100935.02
2023-05-11T12:23:04.626Z,100934.39
2023-05-11T12:25:37.665Z,100928.11
2023-05-11T12:28:11.202Z,100931.44
2023-05-11T12:33:26.842Z,100926.55
2023-05-11T12:35:58.658Z,100925.92
2023-05-11T12:38:30.242Z,100931.87
2023-05-11T12:41:02.380Z,100933.28
2023-05-11T12:43:34.592Z,100937.26
2023-05-11T12:46:07.275Z,100937.45
2023-05-11T12:48:39.572Z,100941.69
2023-05-11T12:51:11.603Z,100932.77
2023-05-11T12:53:43.422Z,100940.23
2023-05-11T12:56:15.588Z,100933.08
2023-05-11T12:58:47.358Z,100932.41
2023-05-11T13:01:20.639Z,100930.36
2023-05-11T13:03:52.794Z,100927.41
2023-05-11T13:06:24.653Z,100927.22
2023-05-11T13:08:56.740Z,100921.83
2023-05-11T13:11:28.672Z,100925.36
2023-05-11T13:14:00.438Z,100924.20
2023-05-11T13:16:33.946Z,100925.53
2023-05-11T13:19:08.602Z,100924.48
2023-05-11T13:21:40.341Z,100921.42
2023-05-11T13:24:43.644Z,100924.95
2023-05-11T13:27:15.926Z,100925.00
2023-05-11T13:29:48.051Z,100919.71
2023-05-11T13:32:20.040Z,100917.69
2023-05-11T13:34:51.722Z,100913.77
2023-05-11T13:37:25.402Z,100914.82
2023-05-11T13:39:57.392Z,100914.51
2023-05-11T13:42:29.917Z,100911.96
2023-05-11T13:45:01.524Z,100909.05
2023-05-11T13:47:34.646Z,100910.09
2023-05-11T13:50:09.200Z,100902.00
2023-05-11T13:52:40.980Z,100905.61
2023-05-11T13:55:23.690Z,100906.83
2023-05-11T13:57:56.479Z,100893.59
2023-05-11T14:00:28.205Z,100898.03
2023-05-11T14:03:00.490Z,100899.41
2023-05-11T14:05:32.616Z,100897.53
2023-05-11T14:08:05.905Z,100896.49
2023-05-11T14:10:37.863Z,100903.70
2023-05-11T14:13:09.818Z,100899.05
2023-05-11T14:15:41.824Z,100895.42
2023-05-11T14:18:14.221Z,100899.01
2023-05-11T14:20:46.285Z,100898.13
2023-05-11T14:23:18.350Z,100894.19
2023-05-11T14:25:50.384Z,100892.81
2023-05-11T14:28:22.150Z,100890.59
2023-05-11T14:30:53.755Z,100882.69
2023-05-11T14:33:25.574Z,100882.86
2023-05-11T14:35:57.184Z,100881.66
2023-05-11T14:38:29.399Z,100881.16
2023-05-11T14:41:02.067Z,100880.45
2023-05-11T14:43:34.922Z,100880.95
2023-05-11T14:46:06.973Z,100882.02
2023-05-11T14:48:38.878Z,100873.25
2023-05-11T14:51:10.395Z,100873.58
2023-05-11T14:53:42.324Z,100872.34
2023-05-11T14:56:15.281Z,100873.38
2023-05-11T14:58:47.253Z,100876.23
2023-05-11T15:01:19.021Z,100877.94
2023-05-11T15:03:50.801Z,100868.98
2023-05-11T15:06:23.608Z,100876.52
2023-05-11T15:08:55.376Z,100874.47
2023-05-11T15:11:27.129Z,100872.72
2023-05-11T15:13:58.905Z,100869.42
2023-05-11T15:16:31.183Z,100873.69
2023-05-11T15:19:02.975Z,100869.72
2023-05-11T15:21:34.925Z,100865.75
2023-05-11T15:24:08.672Z,100875.62
2023-05-11T15:26:40.349Z,100862.91
2023-05-11T15:29:14.110Z,100864.18
2023-05-11T15:31:45.819Z,100868.94
2023-05-11T15:34:17.504Z,100861.56
2023-05-11T15:36:49.899Z,100855.71
2023-05-11T15:39:21.673Z,100860.69
2023-05-11T15:41:53.364Z,100864.47
2023-05-11T15:44:24.997Z,100859.80
2023-05-11T15:46:56.813Z,100859.47
2023-05-11T15:49:28.602Z,100866.48
2023-05-11T15:52:00.458Z,100858.91
2023-05-11T15:54:35.232Z,100862.69
2023-05-11T15:57:06.977Z,100859.61
2023-05-11T15:59:38.794Z,100858.55
2023-05-11T16:02:10.740Z,100860.58
2023-05-11T16:04:42.537Z,100869.66
2023-05-11T16:07:14.231Z,100867.23
2023-05-11T16:09:46.503Z,100864.27
2023-05-11T16:12:18.205Z,100861.17
2023-05-11T16:14:50.483Z,100868.00
2023-05-11T16:17:22.241Z,100862.45
2023-05-11T16:19:54.291Z,100868.78
2023-05-11T16:22:26.326Z,100861.38
2023-05-11T16:24:58.578Z,100861.02
2023-05-11T16:27:30.545Z,100866.46
2023-05-11T16:30:21.786Z,100868.15
2023-05-11T16:32:37.384Z,100866.06
2023-05-11T16:35:09.344Z,100864.66
2023-05-11T16:37:42.762Z,100868.21
2023-05-11T16:40:14.737Z,100870.77
2023-05-11T16:42:47.317Z,100873.47
2023-05-11T16:45:19.343Z,100871.70
2023-05-11T16:47:52.051Z,100875.27
2023-05-11T16:50:23.746Z,100876.42
2023-05-11T16:52:55.710Z,100876.02
2023-05-11T16:55:28.067Z,100879.70
2023-05-11T16:57:59.876Z,100879.33
2023-05-11T17:00:34.085Z,100879.06
2023-05-11T17:03:05.494Z,100880.05
2023-05-11T17:05:37.754Z,100879.14
2023-05-11T17:08:09.452Z,100872.91
2023-05-11T17:10:41.807Z,100883.47
2023-05-11T17:13:13.572Z,100880.17
2023-05-11T17:15:45.193Z,100874.81
2023-05-11T17:18:17.595Z,100874.39
2023-05-11T17:20:57.259Z,100880.46
2023-05-11T17:23:28.865Z,100878.17
2023-05-11T17:26:00.600Z,100878.66
2023-05-11T17:28:32.457Z,100880.09
2023-05-11T17:31:14.451Z,100881.22
2023-05-11T17:33:46.674Z,100880.45
2023-05-11T17:36:18.811Z,100883.09
2023-05-11T17:38:51.607Z,100883.53
2023-05-11T17:41:23.274Z,100887.05
2023-05-11T17:43:55.077Z,100887.11
2023-05-11T17:46:28.293Z,100891.66
2023-05-11T17:49:00.214Z,100897.06
2023-05-11T17:51:31.994Z,100901.45
2023-05-11T17:54:03.585Z,100901.41
2023-05-11T17:56:35.368Z,100909.55
2023-05-11T17:59:07.443Z,100904.66
2023-05-11T18:01:39.761Z,100913.29
2023-05-11T18:04:13.332Z,100911.72
2023-05-11T18:06:45.504Z,100914.36
2023-05-11T18:09:19.180Z,100910.20
2023-05-11T18:11:51.229Z,100911.86
2023-05-11T18:14:22.947Z,100914.03
2023-05-11T18:16:54.573Z,100922.72
2023-05-11T18:19:27.068Z,100927.98
2023-05-11T18:22:00.661Z,100928.96
2023-05-11T18:24:32.432Z,100936.03
2023-05-11T18:27:04.781Z,100928.24
2023-05-11T18:29:37.441Z,100931.70
2023-05-11T18:34:52.560Z,100931.04
2023-05-11T18:37:25.097Z,100929.19
2023-05-11T18:39:57.139Z,100934.16
2023-05-11T18:42:28.808Z,100940.98
2023-05-11T18:45:01.335Z,100937.87
2023-05-11T18:47:36.131Z,100936.36
2023-05-11T18:50:08.750Z,100934.22
2023-05-11T18:52:41.632Z,100936.66
2023-05-11T18:55:13.551Z,100939.73
2023-05-11T18:57:46.158Z,100936.66
2023-05-11T19:00:19.055Z,100940.41
2023-05-11T19:02:52.206Z,100942.06
2023-05-11T19:05:24.098Z,100936.88
2023-05-11T19:07:55.936Z,100939.76
2023-05-11T19:10:28.158Z,100943.27
2023-05-11T19:13:00.170Z,100937.74
2023-05-11T19:15:33.388Z,100940.12
2023-05-11T19:18:05.487Z,100936.95
2023-05-11T19:20:39.449Z,100936.53
2023-05-11T19:23:11.798Z,100939.90
2023-05-11T19:25:44.117Z,100935.73
2023-05-11T19:28:16.143Z,100934.30
2023-05-11T19:30:47.899Z,100933.36
2023-05-11T19:33:20.278Z,100939.88
2023-05-11T19:35:52.156Z,100936.34
2023-05-11T19:38:24.019Z,100931.97
2023-05-11T19:40:56.434Z,100935.75
2023-05-11T19:43:29.043Z,100937.05
2023-05-11T19:46:02.774Z,100936.09
2023-05-11T19:48:35.558Z,100934.77
2023-05-11T19:51:07.277Z,100940.50
2023-05-11T19:53:39.127Z,100940.28
2023-05-11T19:56:10.800Z,100941.78
2023-05-11T19:58:42.994Z,100935.73
2023-05-11T20:01:15.269Z,100928.34
2023-05-11T20:03:47.227Z,100938.66
2023-05-11T20:06:19.284Z,100934.36
2023-05-11T20:08:51.709Z,100935.99
2023-05-11T20:11:23.435Z,100939.00
2023-05-11T20:13:55.978Z,100940.50
2023-05-11T20:16:28.834Z,100935.17
2023-05-11T20:19:00.934Z,100935.31
2023-05-11T20:21:33.852Z,100936.33
2023-05-11T20:24:05.515Z,100936.11
2023-05-11T20:26:37.620Z,100939.11
2023-05-11T20:29:10.392Z,100934.77
2023-05-11T20:31:42.158Z,100934.20
2023-05-11T20:34:14.125Z,100932.23
2023-05-11T20:36:47.424Z,100928.55
2023-05-11T20:39:19.339Z,100930.84
2023-05-11T20:41:51.367Z,100934.46
2023-05-11T20:44:22.855Z,100934.52
2023-05-11T20:46:54.744Z,100934.56
2023-05-11T20:49:38.387Z,100940.06
2023-05-11T20:52:00.414Z,100934.66
2023-05-11T20:54:34.041Z,100936.55
2023-05-11T20:57:05.987Z,100942.75
2023-05-11T21:02:11.380Z,100946.92
2023-05-11T21:04:42.965Z,100945.95
2023-05-11T21:07:14.711Z,100943.76
2023-05-11T21:09:46.504Z,100951.83
2023-05-11T21:12:19.411Z,100950.73
2023-05-11T21:14:51.197Z,100943.15
2023-05-11T21:17:22.803Z,100945.52
2023-05-11T21:19:54.678Z,100944.16
2023-05-11T21:22:26.692Z,100949.59
2023-05-11T21:24:58.399Z,100947.23
2023-05-11T21:27:30.609Z,100954.42
2023-05-11T21:30:02.383Z,100950.34
2023-05-11T21:32:34.717Z,100949.37
2023-05-11T21:35:07.239Z,100949.11
2023-05-11T21:37:39.491Z,100952.19
2023-05-11T21:40:12.222Z,100958.52
2023-05-11T21:42:45.150Z,100954.78
2023-05-11T21:45:16.906Z,100960.58
2023-05-11T21:47:49.058Z,100957.86
2023-05-11T21:50:21.014Z,100960.58
2023-05-11T21:52:53.029Z,100968.63
2023-05-11T21:55:24.718Z,100962.91
2023-05-11T21:57:56.654Z,100965.50
2023-05-11T22:00:28.458Z,100969.59
2023-05-11T22:03:01.505Z,100969.46
2023-05-11T22:05:33.295Z,100972.58
2023-05-11T22:08:13.798Z,100962.66
2023-05-11T22:10:38.653Z,100969.46
2023-05-11T22:13:10.546Z,100972.31
2023-05-11T22:15:42.402Z,100974.33
2023-05-11T22:18:14.072Z,100969.02
2023-05-11T22:20:45.635Z,100971.48
2023-05-11T22:23:17.576Z,100976.70
2023-05-11T22:25:49.207Z,100985.52
2023-05-11T22:28:21.163Z,100980.30
2023-05-11T22:30:53.209Z,100978.55
2023-05-11T22:33:25.458Z,100976.09
2023-05-11T22:35:57.514Z,100980.07
2023-05-11T22:38:29.269Z,100977.25
2023-05-11T22:41:02.874Z,100974.03
2023-05-11T22:43:36.088Z,100976.41
2023-05-11T22:46:08.052Z,100976.66
2023-05-11T22:48:40.101Z,100976.08
2023-05-11T22:51:11.887Z,100976.33
2023-05-11T22:53:44.680Z,100975.59
2023-05-11T22:56:16.920Z,100977.69
2023-05-11T22:58:48.843Z,100970.42
2023-05-11T23:01:21.004Z,100973.66
2023-05-11T23:06:49.051Z,100972.80
2023-05-11T23:09:21.213Z,100975.77
2023-05-11T23:11:53.327Z,100973.70
2023-05-11T23:14:25.241Z,100969.88
2023-05-11T23:16:57.362Z,100968.15
2023-05-11T23:19:29.286Z,100973.20
2023-05-11T23:22:01.050Z,100972.97
2023-05-11T23:24:33.156Z,100969.27
2023-05-11T23:27:04.952Z,100970.52
2023-05-11T23:29:37.257Z,100970.41
2023-05-11T23:32:09.024Z,100968.30
2023-05-11T23:34:40.701Z,100966.94
2023-05-11T23:37:12.440Z,100970.53
2023-05-11T23:39:44.125Z,100969.28
2023-05-11T23:42:15.862Z,100965.33
2023-05-11T23:44:47.622Z,100970.16
2023-05-11T23:47:19.186Z,100971.23
2023-05-11T23:49:50.930Z,100968.52
2023-05-11T23:52:22.779Z,100973.34
2023-05-11T23:54:54.348Z,100971.50
2023-05-11T23:57:26.126Z,100972.34
2023-05-11T23:59:58.176Z,100969.63
